オウル の空港の天気 - METARとTAF

オウル空港 ( EFOU / OUL ) - フィンランド Oulunsalo
飛行場実況気象(Metar)
観測時間05/20 04:20 EEST (05/20 01:20 UTC)
風向・風速南南東 2m/s
視程10km以上
天気現象
なし
気温14℃
湿度72%
気圧1015hPa
METAREFOU 200120Z AUTO 16004KT CAVOK 14/09 Q1015
過去の天気等 Google飛行場航空写真 Wunderground天気予報

過去48時間のMETAR

飛行場予報(TAF)
発表時間: 5/20 02:22 EEST (5/19 23:22 UTC)
予報対象時間: 20日3時 EEST ~ 21日3時 EEST
風向・風速東南東 4m/s
視程10km以上
なし
20日14時 EEST ~ 20日24時 EEST に一時的に
天気現象しゅう雨
全天の4割程度の積乱雲 雲底高度 760m
20日17時 EEST から 確率 30% で
視程7000m
天気現象雷雨
21日1時 EEST から 確率 40% で
視程1200m
天気現象もや
全天の8割程度の雲 雲底高度 60m
TAF EFOU 192322Z 2000/2024 12007KT CAVOK
TEMPO 2011/2021 SHRA SCT025CB
PROB30 2014/2020 7000 TSRA
PROB40 2022/2024 1200 BR BKN002